sensor_id;sensor_type;location;lat;lon;timestamp;pressure;altitude;pressure_sealevel;temperature;humidity
64019;BME280;66942;52.138;5.216;2023-08-31T00:01:47;100805.0;;;21.18;48.31
64019;BME280;66942;52.138;5.216;2023-08-31T00:03:24;100803.0;;;21.23;48.26
64019;BME280;66942;52.138;5.216;2023-08-31T00:05:00;100805.0;;;21.27;48.31
64019;BME280;66942;52.138;5.216;2023-08-31T00:06:36;100805.0;;;21.26;48.32
64019;BME280;66942;52.138;5.216;2023-08-31T00:09:48;100801.0;;;21.32;48.35
64019;BME280;66942;52.138;5.216;2023-08-31T00:11:24;100797.0;;;21.51;47.94
64019;BME280;66942;52.138;5.216;2023-08-31T00:13:00;100789.0;;;21.38;48.33
64019;BME280;66942;52.138;5.216;2023-08-31T00:16:12;100788.0;;;21.42;48.23
64019;BME280;66942;52.138;5.216;2023-08-31T00:17:49;100785.0;;;21.57;47.89
64019;BME280;66942;52.138;5.216;2023-08-31T00:19:26;100780.0;;;21.48;48.1
64019;BME280;66942;52.138;5.216;2023-08-31T00:22:38;100784.0;;;21.59;47.97
64019;BME280;66942;52.138;5.216;2023-08-31T00:24:14;100780.0;;;21.37;48.49
64019;BME280;66942;52.138;5.216;2023-08-31T00:25:50;100782.0;;;21.72;47.7
64019;BME280;66942;52.138;5.216;2023-08-31T00:27:27;100781.0;;;21.62;47.97
64019;BME280;66942;52.138;5.216;2023-08-31T00:30:39;100788.0;;;21.73;47.94
64019;BME280;66942;52.138;5.216;2023-08-31T00:32:16;100790.0;;;21.52;48.54
64019;BME280;66942;52.138;5.216;2023-08-31T00:33:52;100789.0;;;21.71;48.07
64019;BME280;66942;52.138;5.216;2023-08-31T00:37:04;100789.0;;;21.56;48.45
64019;BME280;66942;52.138;5.216;2023-08-31T00:38:41;100785.0;;;21.58;48.65
64019;BME280;66942;52.138;5.216;2023-08-31T00:40:17;100785.0;;;21.53;48.83
64019;BME280;66942;52.138;5.216;2023-08-31T00:43:29;100781.0;;;21.47;49.1
64019;BME280;66942;52.138;5.216;2023-08-31T00:45:08;100781.0;;;21.67;48.67
64019;BME280;66942;52.138;5.216;2023-08-31T00:46:45;100780.0;;;21.86;48.29
64019;BME280;66942;52.138;5.216;2023-08-31T00:49:57;100781.0;;;21.76;48.63
64019;BME280;66942;52.138;5.216;2023-08-31T00:51:33;100784.0;;;21.85;48.5
64019;BME280;66942;52.138;5.216;2023-08-31T00:53:10;100782.0;;;21.77;48.72
64019;BME280;66942;52.138;5.216;2023-08-31T00:54:46;100789.0;;;21.91;48.54
64019;BME280;66942;52.138;5.216;2023-08-31T00:58:00;100795.0;;;22.04;48.37
64019;BME280;66942;52.138;5.216;2023-08-31T00:59:36;100796.0;;;21.89;48.75
64019;BME280;66942;52.138;5.216;2023-08-31T01:01:22;100788.0;;;22.02;48.59
64019;BME280;66942;52.138;5.216;2023-08-31T01:03:12;100788.0;;;22.05;48.49
64019;BME280;66942;52.138;5.216;2023-08-31T01:06:48;100789.0;;;22.21;48.16
64019;BME280;66942;52.138;5.216;2023-08-31T01:08:36;100790.0;;;22.23;48.09
64019;BME280;66942;52.138;5.216;2023-08-31T01:10:23;100788.0;;;22.13;48.15
64019;BME280;66942;52.138;5.216;2023-08-31T01:12:09;100783.0;;;22.2;48.1
64019;BME280;66942;52.138;5.216;2023-08-31T01:13:50;100777.0;;;22.26;47.7
64019;BME280;66942;52.138;5.216;2023-08-31T01:15:39;100782.0;;;22.26;47.76
64019;BME280;66942;52.138;5.216;2023-08-31T01:18:56;100776.0;;;22.04;48.14
64019;BME280;66942;52.138;5.216;2023-08-31T01:20:38;100782.0;;;22.13;47.96
64019;BME280;66942;52.138;5.216;2023-08-31T01:22:24;100776.0;;;22.21;47.65
64019;BME280;66942;52.138;5.216;2023-08-31T01:24:08;100769.0;;;22.23;47.64
64019;BME280;66942;52.138;5.216;2023-08-31T01:27:23;100772.0;;;22.44;47.2
64019;BME280;66942;52.138;5.216;2023-08-31T01:28:59;100776.0;;;22.36;47.32
64019;BME280;66942;52.138;5.216;2023-08-31T01:30:36;100778.0;;;22.23;47.75
64019;BME280;66942;52.138;5.216;2023-08-31T01:33:48;100785.0;;;22.22;47.8
64019;BME280;66942;52.138;5.216;2023-08-31T01:35:25;100782.0;;;22.09;48.14
64019;BME280;66942;52.138;5.216;2023-08-31T01:37:07;100782.0;;;22.31;47.64
64019;BME280;66942;52.138;5.216;2023-08-31T01:39:03;100780.0;;;22.24;47.8
64019;BME280;66942;52.138;5.216;2023-08-31T01:40:45;100780.0;;;22.28;47.79
64019;BME280;66942;52.138;5.216;2023-08-31T01:44:04;100783.0;;;22.31;47.73
64019;BME280;66942;52.138;5.216;2023-08-31T01:45:45;100778.0;;;22.42;47.66
64019;BME280;66942;52.138;5.216;2023-08-31T01:47:22;100778.0;;;22.5;47.44
64019;BME280;66942;52.138;5.216;2023-08-31T01:50:35;100775.0;;;22.56;47.38
64019;BME280;66942;52.138;5.216;2023-08-31T01:52:11;100777.0;;;22.51;47.34
64019;BME280;66942;52.138;5.216;2023-08-31T01:53:47;100780.0;;;22.37;47.65
64019;BME280;66942;52.138;5.216;2023-08-31T01:55:24;100780.0;;;22.38;47.8
64019;BME280;66942;52.138;5.216;2023-08-31T01:58:36;100780.0;;;22.38;47.6
64019;BME280;66942;52.138;5.216;2023-08-31T02:00:14;100783.0;;;22.23;47.85
64019;BME280;66942;52.138;5.216;2023-08-31T02:01:52;100778.0;;;22.26;47.72
64019;BME280;66942;52.138;5.216;2023-08-31T02:05:05;100774.0;;;22.14;47.91
64019;BME280;66942;52.138;5.216;2023-08-31T02:06:41;100776.0;;;22.41;47.41
64019;BME280;66942;52.138;5.216;2023-08-31T02:08:17;100783.0;;;22.52;47.24
64019;BME280;66942;52.138;5.216;2023-08-31T02:11:29;100793.0;;;22.66;46.94
64019;BME280;66942;52.138;5.216;2023-08-31T02:13:06;100799.0;;;22.66;47.01
64019;BME280;66942;52.138;5.216;2023-08-31T02:14:42;100795.0;;;22.76;46.7
64019;BME280;66942;52.138;5.216;2023-08-31T02:16:18;100805.0;;;22.6;47.23
64019;BME280;66942;52.138;5.216;2023-08-31T02:19:30;100807.0;;;22.72;47.04
64019;BME280;66942;52.138;5.216;2023-08-31T02:21:06;100807.0;;;22.73;47.03
64019;BME280;66942;52.138;5.216;2023-08-31T02:22:42;100805.0;;;22.62;47.23
64019;BME280;66942;52.138;5.216;2023-08-31T02:25:55;100802.0;;;22.52;47.35
64019;BME280;66942;52.138;5.216;2023-08-31T02:27:32;100799.0;;;22.61;47.14
64019;BME280;66942;52.138;5.216;2023-08-31T02:29:08;100802.0;;;22.48;47.41
64019;BME280;66942;52.138;5.216;2023-08-31T02:32:22;100801.0;;;22.54;46.97
64019;BME280;66942;52.138;5.216;2023-08-31T02:33:58;100808.0;;;22.47;46.96
64019;BME280;66942;52.138;5.216;2023-08-31T02:35:34;100814.0;;;22.67;46.67
64019;BME280;66942;52.138;5.216;2023-08-31T02:37:10;100810.0;;;22.72;46.6
64019;BME280;66942;52.138;5.216;2023-08-31T02:40:22;100805.0;;;22.76;46.17
64019;BME280;66942;52.138;5.216;2023-08-31T02:41:59;100801.0;;;22.52;46.78
64019;BME280;66942;52.138;5.216;2023-08-31T02:43:35;100800.0;;;22.48;46.78
64019;BME280;66942;52.138;5.216;2023-08-31T02:46:47;100793.0;;;22.44;47.1
64019;BME280;66942;52.138;5.216;2023-08-31T02:48:23;100791.0;;;22.28;47.59
64019;BME280;66942;52.138;5.216;2023-08-31T02:49:59;100787.0;;;22.13;47.94
64019;BME280;66942;52.138;5.216;2023-08-31T02:53:11;100788.0;;;22.0;48.37
64019;BME280;66942;52.138;5.216;2023-08-31T02:54:47;100793.0;;;21.96;48.43
64019;BME280;66942;52.138;5.216;2023-08-31T02:56:24;100788.0;;;22.0;48.55
64019;BME280;66942;52.138;5.216;2023-08-31T02:59:37;100795.0;;;21.95;48.75
64019;BME280;66942;52.138;5.216;2023-08-31T03:01:14;100794.0;;;21.89;48.6
64019;BME280;66942;52.138;5.216;2023-08-31T03:02:49;100789.0;;;22.07;48.12
64019;BME280;66942;52.138;5.216;2023-08-31T03:04:25;100789.0;;;22.03;48.02
64019;BME280;66942;52.138;5.216;2023-08-31T03:07:38;100789.0;;;22.11;47.76
64019;BME280;66942;52.138;5.216;2023-08-31T03:09:14;100791.0;;;22.21;47.29
64019;BME280;66942;52.138;5.216;2023-08-31T03:10:50;100796.0;;;22.14;47.59
64019;BME280;66942;52.138;5.216;2023-08-31T03:14:02;100801.0;;;22.48;46.74
64019;BME280;66942;52.138;5.216;2023-08-31T03:15:38;100796.0;;;22.43;47.09
64019;BME280;66942;52.138;5.216;2023-08-31T03:17:14;100791.0;;;22.17;47.78
64019;BME280;66942;52.138;5.216;2023-08-31T03:20:27;100791.0;;;21.98;48.2
64019;BME280;66942;52.138;5.216;2023-08-31T03:22:03;100793.0;;;21.96;48.35
64019;BME280;66942;52.138;5.216;2023-08-31T03:23:39;100796.0;;;21.96;48.28
64019;BME280;66942;52.138;5.216;2023-08-31T03:26:51;100789.0;;;22.12;47.9
64019;BME280;66942;52.138;5.216;2023-08-31T03:28:27;100796.0;;;21.8;48.62
64019;BME280;66942;52.138;5.216;2023-08-31T03:30:04;100794.0;;;21.91;48.11
64019;BME280;66942;52.138;5.216;2023-08-31T03:31:40;100800.0;;;21.76;48.43
64019;BME280;66942;52.138;5.216;2023-08-31T03:34:53;100805.0;;;22.03;47.97
64019;BME280;66942;52.138;5.216;2023-08-31T03:36:29;100822.0;;;22.4;46.98
64019;BME280;66942;52.138;5.216;2023-08-31T03:38:05;100822.0;;;22.6;46.36
64019;BME280;66942;52.138;5.216;2023-08-31T03:41:17;100819.0;;;22.32;47.17
64019;BME280;66942;52.138;5.216;2023-08-31T03:42:53;100824.0;;;22.23;47.6
64019;BME280;66942;52.138;5.216;2023-08-31T03:44:29;100826.0;;;22.28;47.49
64019;BME280;66942;52.138;5.216;2023-08-31T03:47:42;100830.0;;;21.96;48.36
64019;BME280;66942;52.138;5.216;2023-08-31T03:49:18;100823.0;;;21.8;48.75
64019;BME280;66942;52.138;5.216;2023-08-31T03:50:54;100820.0;;;21.85;48.71
64019;BME280;66942;52.138;5.216;2023-08-31T03:52:31;100824.0;;;21.83;48.86
64019;BME280;66942;52.138;5.216;2023-08-31T03:55:43;100837.0;;;21.82;49.03
64019;BME280;66942;52.138;5.216;2023-08-31T03:57:19;100838.0;;;21.87;48.94
64019;BME280;66942;52.138;5.216;2023-08-31T03:58:55;100832.0;;;21.8;49.18
64019;BME280;66942;52.138;5.216;2023-08-31T04:02:07;100823.0;;;21.77;49.37
64019;BME280;66942;52.138;5.216;2023-08-31T04:03:44;100827.0;;;21.86;49.01
64019;BME280;66942;52.138;5.216;2023-08-31T04:05:20;100827.0;;;22.0;48.74
64019;BME280;66942;52.138;5.216;2023-08-31T04:08:32;100830.0;;;21.98;48.8
64019;BME280;66942;52.138;5.216;2023-08-31T04:10:08;100833.0;;;22.03;48.78
64019;BME280;66942;52.138;5.216;2023-08-31T04:11:44;100830.0;;;21.95;49.11
64019;BME280;66942;52.138;5.216;2023-08-31T04:14:58;100828.0;;;22.12;48.68
64019;BME280;66942;52.138;5.216;2023-08-31T04:16:35;100824.0;;;22.04;48.97
64019;BME280;66942;52.138;5.216;2023-08-31T04:18:11;100822.0;;;22.0;49.05
64019;BME280;66942;52.138;5.216;2023-08-31T04:19:47;100827.0;;;21.99;49.19
64019;BME280;66942;52.138;5.216;2023-08-31T04:22:59;100826.0;;;22.03;49.22
64019;BME280;66942;52.138;5.216;2023-08-31T04:24:35;100830.0;;;22.05;49.17
64019;BME280;66942;52.138;5.216;2023-08-31T04:26:12;100833.0;;;21.99;49.48
64019;BME280;66942;52.138;5.216;2023-08-31T04:29:26;100831.0;;;21.88;49.79
64019;BME280;66942;52.138;5.216;2023-08-31T04:31:04;100837.0;;;21.9;49.77
64019;BME280;66942;52.138;5.216;2023-08-31T04:32:41;100843.0;;;22.05;49.43
64019;BME280;66942;52.138;5.216;2023-08-31T04:35:53;100842.0;;;22.11;49.36
64019;BME280;66942;52.138;5.216;2023-08-31T04:37:29;100852.0;;;22.14;49.31
64019;BME280;66942;52.138;5.216;2023-08-31T04:39:05;100859.0;;;22.17;49.25
64019;BME280;66942;52.138;5.216;2023-08-31T04:40:41;100857.0;;;22.18;49.21
64019;BME280;66942;52.138;5.216;2023-08-31T04:43:54;100860.0;;;22.3;48.92
64019;BME280;66942;52.138;5.216;2023-08-31T04:45:30;100862.0;;;22.23;49.14
64019;BME280;66942;52.138;5.216;2023-08-31T04:47:06;100875.0;;;22.39;48.79
64019;BME280;66942;52.138;5.216;2023-08-31T04:50:18;100873.0;;;22.33;48.88
64019;BME280;66942;52.138;5.216;2023-08-31T04:51:55;100876.0;;;22.47;48.5
64019;BME280;66942;52.138;5.216;2023-08-31T04:53:32;100877.0;;;22.34;48.79
64019;BME280;66942;52.138;5.216;2023-08-31T04:56:44;100867.0;;;22.16;49.09
64019;BME280;66942;52.138;5.216;2023-08-31T04:58:20;100867.0;;;22.14;49.08
64019;BME280;66942;52.138;5.216;2023-08-31T04:59:57;100868.0;;;22.38;48.52
64019;BME280;66942;52.138;5.216;2023-08-31T05:01:33;100868.0;;;22.23;48.67
64019;BME280;66942;52.138;5.216;2023-08-31T05:04:45;100869.0;;;22.42;48.42
64019;BME280;66942;52.138;5.216;2023-08-31T05:06:21;100865.0;;;22.27;48.75
64019;BME280;66942;52.138;5.216;2023-08-31T05:07:57;100865.0;;;22.19;48.89
64019;BME280;66942;52.138;5.216;2023-08-31T05:11:10;100869.0;;;22.19;49.15
64019;BME280;66942;52.138;5.216;2023-08-31T05:12:46;100867.0;;;22.09;49.2
64019;BME280;66942;52.138;5.216;2023-08-31T05:14:23;100867.0;;;21.98;49.49
64019;BME280;66942;52.138;5.216;2023-08-31T05:17:35;100874.0;;;22.16;49.04
64019;BME280;66942;52.138;5.216;2023-08-31T05:19:11;100877.0;;;22.13;49.13
64019;BME280;66942;52.138;5.216;2023-08-31T05:20:47;100878.0;;;22.01;49.44
64019;BME280;66942;52.138;5.216;2023-08-31T05:24:01;100881.0;;;22.07;49.28
64019;BME280;66942;52.138;5.216;2023-08-31T05:25:41;100881.0;;;22.04;49.22
64019;BME280;66942;52.138;5.216;2023-08-31T05:27:18;100883.0;;;22.01;49.34
64019;BME280;66942;52.138;5.216;2023-08-31T05:28:55;100882.0;;;21.9;49.66
64019;BME280;66942;52.138;5.216;2023-08-31T05:32:07;100886.0;;;22.0;49.28
64019;BME280;66942;52.138;5.216;2023-08-31T05:33:43;100883.0;;;21.96;49.45
64019;BME280;66942;52.138;5.216;2023-08-31T05:35:19;100885.0;;;21.88;49.71
64019;BME280;66942;52.138;5.216;2023-08-31T05:38:32;100883.0;;;21.85;49.86
64019;BME280;66942;52.138;5.216;2023-08-31T05:40:09;100884.0;;;21.9;49.82
64019;BME280;66942;52.138;5.216;2023-08-31T05:41:46;100889.0;;;21.95;49.86
64019;BME280;66942;52.138;5.216;2023-08-31T05:43:22;100894.0;;;22.08;49.73
64019;BME280;66942;52.138;5.216;2023-08-31T05:46:34;100903.0;;;22.22;49.42
64019;BME280;66942;52.138;5.216;2023-08-31T05:48:10;100917.0;;;22.29;49.36
64019;BME280;66942;52.138;5.216;2023-08-31T05:49:47;100925.0;;;22.28;49.58
64019;BME280;66942;52.138;5.216;2023-08-31T05:52:58;100925.0;;;22.24;49.59
64019;BME280;66942;52.138;5.216;2023-08-31T05:54:35;100915.0;;;22.42;48.59
64019;BME280;66942;52.138;5.216;2023-08-31T05:56:11;100927.0;;;22.55;48.69
64019;BME280;66942;52.138;5.216;2023-08-31T05:59:23;100923.0;;;22.48;48.95
64019;BME280;66942;52.138;5.216;2023-08-31T06:00:59;100930.0;;;22.65;48.49
64019;BME280;66942;52.138;5.216;2023-08-31T06:02:35;100932.0;;;22.83;48.23
64019;BME280;66942;52.138;5.216;2023-08-31T06:05:47;100937.0;;;22.72;48.67
64019;BME280;66942;52.138;5.216;2023-08-31T06:07:23;100937.0;;;22.49;49.2
64019;BME280;66942;52.138;5.216;2023-08-31T06:09:00;100933.0;;;22.24;49.89
64019;BME280;66942;52.138;5.216;2023-08-31T06:10:36;100938.0;;;22.27;49.89
64019;BME280;66942;52.138;5.216;2023-08-31T06:13:48;100946.0;;;22.54;49.41
64019;BME280;66942;52.138;5.216;2023-08-31T06:15:24;100948.0;;;22.51;49.52
64019;BME280;66942;52.138;5.216;2023-08-31T06:17:01;100944.0;;;22.54;49.35
64019;BME280;66942;52.138;5.216;2023-08-31T06:20:13;100953.0;;;22.49;49.59
64019;BME280;66942;52.138;5.216;2023-08-31T06:21:50;100955.0;;;22.62;49.18
64019;BME280;66942;52.138;5.216;2023-08-31T06:23:26;100953.0;;;22.65;49.01
64019;BME280;66942;52.138;5.216;2023-08-31T06:26:39;100946.0;;;22.74;48.86
64019;BME280;66942;52.138;5.216;2023-08-31T06:28:15;100943.0;;;22.62;49.01
64019;BME280;66942;52.138;5.216;2023-08-31T06:29:51;100948.0;;;22.53;49.25
64019;BME280;66942;52.138;5.216;2023-08-31T06:33:04;100955.0;;;22.71;48.91
64019;BME280;66942;52.138;5.216;2023-08-31T06:34:40;100943.0;;;22.93;48.24
64019;BME280;66942;52.138;5.216;2023-08-31T06:36:16;100942.0;;;22.78;48.53
64019;BME280;66942;52.138;5.216;2023-08-31T06:37:53;100936.0;;;22.74;48.62
64019;BME280;66942;52.138;5.216;2023-08-31T06:41:05;100937.0;;;22.48;49.43
64019;BME280;66942;52.138;5.216;2023-08-31T06:42:41;100931.0;;;22.66;49.07
64019;BME280;66942;52.138;5.216;2023-08-31T06:44:17;100931.0;;;22.83;48.84
64019;BME280;66942;52.138;5.216;2023-08-31T06:47:29;100935.0;;;22.84;48.98
64019;BME280;66942;52.138;5.216;2023-08-31T06:49:05;100941.0;;;22.88;48.91
64019;BME280;66942;52.138;5.216;2023-08-31T06:50:41;100945.0;;;22.69;49.47
64019;BME280;66942;52.138;5.216;2023-08-31T06:53:54;100950.0;;;22.84;49.36
64019;BME280;66942;52.138;5.216;2023-08-31T06:55:30;100945.0;;;22.73;50.23
64019;BME280;66942;52.138;5.216;2023-08-31T06:57:07;100959.0;;;22.9;49.9
64019;BME280;66942;52.138;5.216;2023-08-31T06:58:43;100962.0;;;23.0;50.02
64019;BME280;66942;52.138;5.216;2023-08-31T07:01:55;100960.0;;;23.17;49.63
64019;BME280;66942;52.138;5.216;2023-08-31T07:03:31;100956.0;;;23.47;48.67
64019;BME280;66942;52.138;5.216;2023-08-31T07:05:10;100963.0;;;23.3;49.17
64019;BME280;66942;52.138;5.216;2023-08-31T07:08:23;100964.0;;;23.38;49.03
64019;BME280;66942;52.138;5.216;2023-08-31T07:09:59;100967.0;;;23.2;49.46
64019;BME280;66942;52.138;5.216;2023-08-31T07:11:35;100966.0;;;23.43;48.77
64019;BME280;66942;52.138;5.216;2023-08-31T07:14:47;100962.0;;;23.28;48.95
64019;BME280;66942;52.138;5.216;2023-08-31T07:16:23;100967.0;;;23.26;49.16
64019;BME280;66942;52.138;5.216;2023-08-31T07:17:59;100967.0;;;23.23;49.13
64019;BME280;66942;52.138;5.216;2023-08-31T07:19:36;100967.0;;;23.23;49.34
64019;BME280;66942;52.138;5.216;2023-08-31T07:22:49;100971.0;;;23.46;49.25
64019;BME280;66942;52.138;5.216;2023-08-31T07:24:25;100977.0;;;23.7;48.69
64019;BME280;66942;52.138;5.216;2023-08-31T07:26:01;100974.0;;;23.65;48.54
64019;BME280;66942;52.138;5.216;2023-08-31T07:29:13;100975.0;;;23.72;48.72
64019;BME280;66942;52.138;5.216;2023-08-31T07:30:49;100978.0;;;23.78;48.82
64019;BME280;66942;52.138;5.216;2023-08-31T07:32:25;100980.0;;;23.98;48.46
64019;BME280;66942;52.138;5.216;2023-08-31T07:35:37;100988.0;;;23.8;49.53
64019;BME280;66942;52.138;5.216;2023-08-31T07:37:13;100987.0;;;24.07;49.03
64019;BME280;66942;52.138;5.216;2023-08-31T07:38:49;100977.0;;;24.24;48.22
64019;BME280;66942;52.138;5.216;2023-08-31T07:42:02;100976.0;;;24.18;48.08
64019;BME280;66942;52.138;5.216;2023-08-31T07:43:38;100977.0;;;24.26;47.64
64019;BME280;66942;52.138;5.216;2023-08-31T07:45:14;100980.0;;;24.1;47.64
64019;BME280;66942;52.138;5.216;2023-08-31T07:46:50;100983.0;;;24.06;47.83
64019;BME280;66942;52.138;5.216;2023-08-31T07:50:02;100984.0;;;24.11;47.64
64019;BME280;66942;52.138;5.216;2023-08-31T07:51:38;100988.0;;;23.99;48.01
64019;BME280;66942;52.138;5.216;2023-08-31T07:53:14;100988.0;;;23.96;48.06
64019;BME280;66942;52.138;5.216;2023-08-31T07:56:26;100992.0;;;23.82;48.7
64019;BME280;66942;52.138;5.216;2023-08-31T07:58:02;100994.0;;;23.93;48.6
64019;BME280;66942;52.138;5.216;2023-08-31T07:59:38;100995.0;;;23.97;48.58
64019;BME280;66942;52.138;5.216;2023-08-31T08:02:50;100995.0;;;23.98;48.96
64019;BME280;66942;52.138;5.216;2023-08-31T08:04:26;100999.0;;;24.16;49.11
64019;BME280;66942;52.138;5.216;2023-08-31T08:06:02;101006.0;;;24.38;48.49
64019;BME280;66942;52.138;5.216;2023-08-31T08:09:15;101002.0;;;24.52;47.97
64019;BME280;66942;52.138;5.216;2023-08-31T08:10:52;101006.0;;;24.43;48.38
64019;BME280;66942;52.138;5.216;2023-08-31T08:12:36;100998.0;;;24.66;47.99
64019;BME280;66942;52.138;5.216;2023-08-31T08:14:13;101006.0;;;24.76;48.11
64019;BME280;66942;52.138;5.216;2023-08-31T08:17:25;101006.0;;;24.62;48.99
64019;BME280;66942;52.138;5.216;2023-08-31T08:19:01;101006.0;;;24.74;49.04
64019;BME280;66942;52.138;5.216;2023-08-31T08:20:37;101005.0;;;24.91;48.43
64019;BME280;66942;52.138;5.216;2023-08-31T08:23:49;101007.0;;;24.95;48.41
64019;BME280;66942;52.138;5.216;2023-08-31T08:25:26;101011.0;;;25.12;47.87
64019;BME280;66942;52.138;5.216;2023-08-31T08:27:02;101008.0;;;25.04;47.8
64019;BME280;66942;52.138;5.216;2023-08-31T08:28:38;101014.0;;;25.16;47.7
64019;BME280;66942;52.138;5.216;2023-08-31T08:31:50;101014.0;;;25.23;47.38
64019;BME280;66942;52.138;5.216;2023-08-31T08:33:26;101017.0;;;25.32;47.42
64019;BME280;66942;52.138;5.216;2023-08-31T08:35:03;101018.0;;;25.26;47.49
64019;BME280;66942;52.138;5.216;2023-08-31T08:38:16;101022.0;;;25.47;47.6
64019;BME280;66942;52.138;5.216;2023-08-31T08:39:53;101030.0;;;25.42;48.01
64019;BME280;66942;52.138;5.216;2023-08-31T08:41:29;101025.0;;;25.61;47.81
64019;BME280;66942;52.138;5.216;2023-08-31T08:44:44;101026.0;;;25.78;47.67
64019;BME280;66942;52.138;5.216;2023-08-31T08:46:20;101024.0;;;26.19;46.83
64019;BME280;66942;52.138;5.216;2023-08-31T08:47:58;101026.0;;;26.15;46.89
64019;BME280;66942;52.138;5.216;2023-08-31T08:49:35;101027.0;;;26.23;47.29
64019;BME280;66942;52.138;5.216;2023-08-31T08:52:50;101023.0;;;26.41;46.32
64019;BME280;66942;52.138;5.216;2023-08-31T08:54:27;101023.0;;;26.45;46.84
64019;BME280;66942;52.138;5.216;2023-08-31T08:56:03;101023.0;;;26.66;46.56
64019;BME280;66942;52.138;5.216;2023-08-31T08:59:16;101023.0;;;26.7;46.95
64019;BME280;66942;52.138;5.216;2023-08-31T09:00:54;101030.0;;;26.96;46.49
64019;BME280;66942;52.138;5.216;2023-08-31T09:02:30;101027.0;;;26.98;45.96
64019;BME280;66942;52.138;5.216;2023-08-31T09:05:44;101028.0;;;27.13;46.1
64019;BME280;66942;52.138;5.216;2023-08-31T09:07:21;101023.0;;;27.12;45.68
64019;BME280;66942;52.138;5.216;2023-08-31T09:08:57;101018.0;;;27.13;45.39
64019;BME280;66942;52.138;5.216;2023-08-31T09:10:34;101025.0;;;27.2;44.15
64019;BME280;66942;52.138;5.216;2023-08-31T09:13:47;101027.0;;;27.15;44.0
64019;BME280;66942;52.138;5.216;2023-08-31T09:15:24;101032.0;;;26.77;44.32
64019;BME280;66942;52.138;5.216;2023-08-31T09:17:00;101035.0;;;26.61;45.23
64019;BME280;66942;52.138;5.216;2023-08-31T09:20:13;101033.0;;;26.54;45.14
64019;BME280;66942;52.138;5.216;2023-08-31T09:21:50;101036.0;;;26.73;43.82
64019;BME280;66942;52.138;5.216;2023-08-31T09:23:28;101034.0;;;26.46;43.5
64019;BME280;66942;52.138;5.216;2023-08-31T09:26:44;101033.0;;;26.68;42.72
64019;BME280;66942;52.138;5.216;2023-08-31T09:28:22;101035.0;;;26.49;42.98
64019;BME280;66942;52.138;5.216;2023-08-31T09:29:58;101037.0;;;26.63;44.01
64019;BME280;66942;52.138;5.216;2023-08-31T09:31:34;101035.0;;;26.8;44.82
64019;BME280;66942;52.138;5.216;2023-08-31T09:34:53;101037.0;;;26.79;44.39
64019;BME280;66942;52.138;5.216;2023-08-31T09:36:29;101038.0;;;26.89;44.71
64019;BME280;66942;52.138;5.216;2023-08-31T09:38:07;101039.0;;;26.82;42.52
64019;BME280;66942;52.138;5.216;2023-08-31T09:41:20;101037.0;;;27.24;42.17
64019;BME280;66942;52.138;5.216;2023-08-31T09:42:56;101039.0;;;27.2;44.44
64019;BME280;66942;52.138;5.216;2023-08-31T09:44:32;101036.0;;;27.47;41.93
64019;BME280;66942;52.138;5.216;2023-08-31T09:46:09;101035.0;;;27.65;44.21
64019;BME280;66942;52.138;5.216;2023-08-31T09:49:21;101025.0;;;27.9;43.73
64019;BME280;66942;52.138;5.216;2023-08-31T09:51:02;101022.0;;;28.07;42.94
64019;BME280;66942;52.138;5.216;2023-08-31T09:52:40;101026.0;;;28.22;43.36
64019;BME280;66942;52.138;5.216;2023-08-31T09:55:56;101026.0;;;28.31;41.71
64019;BME280;66942;52.138;5.216;2023-08-31T09:57:33;101021.0;;;28.43;41.77
64019;BME280;66942;52.138;5.216;2023-08-31T09:59:12;101025.0;;;28.54;39.08
64019;BME280;66942;52.138;5.216;2023-08-31T10:00:49;101027.0;;;28.79;38.92
64019;BME280;66942;52.138;5.216;2023-08-31T10:04:06;101032.0;;;28.79;38.92
64019;BME280;66942;52.138;5.216;2023-08-31T10:05:43;101035.0;;;28.87;36.42
64019;BME280;66942;52.138;5.216;2023-08-31T10:07:21;101040.0;;;29.03;37.49
64019;BME280;66942;52.138;5.216;2023-08-31T10:10:34;101039.0;;;28.66;34.61
64019;BME280;66942;52.138;5.216;2023-08-31T10:12:11;101043.0;;;28.8;35.31
64019;BME280;66942;52.138;5.216;2023-08-31T10:13:50;101040.0;;;28.68;34.5
64019;BME280;66942;52.138;5.216;2023-08-31T10:15:31;101041.0;;;28.76;34.67
64019;BME280;66942;52.138;5.216;2023-08-31T10:18:44;101039.0;;;28.51;34.01
64019;BME280;66942;52.138;5.216;2023-08-31T10:20:20;101045.0;;;27.73;33.21
64019;BME280;66942;52.138;5.216;2023-08-31T10:21:57;101044.0;;;28.46;36.1
64019;BME280;66942;52.138;5.216;2023-08-31T10:25:09;101041.0;;;28.06;33.55
64019;BME280;66942;52.138;5.216;2023-08-31T10:26:46;101039.0;;;28.26;36.14
64019;BME280;66942;52.138;5.216;2023-08-31T10:28:23;101034.0;;;28.35;35.17
64019;BME280;66942;52.138;5.216;2023-08-31T10:30:13;101035.0;;;28.74;36.69
64019;BME280;66942;52.138;5.216;2023-08-31T10:33:25;101034.0;;;28.8;36.86
64019;BME280;66942;52.138;5.216;2023-08-31T10:35:07;101039.0;;;28.94;34.31
64019;BME280;66942;52.138;5.216;2023-08-31T10:36:45;101039.0;;;28.9;32.68
64019;BME280;66942;52.138;5.216;2023-08-31T10:38:25;101048.0;;;29.0;32.67
64019;BME280;66942;52.138;5.216;2023-08-31T10:41:53;101047.0;;;28.82;32.74
64019;BME280;66942;52.138;5.216;2023-08-31T10:43:43;101045.0;;;28.94;32.99
64019;BME280;66942;52.138;5.216;2023-08-31T10:45:19;101047.0;;;28.94;33.96
64019;BME280;66942;52.138;5.216;2023-08-31T10:46:59;101042.0;;;28.99;33.17
64019;BME280;66942;52.138;5.216;2023-08-31T10:50:25;101044.0;;;29.04;33.33
64019;BME280;66942;52.138;5.216;2023-08-31T10:52:15;101044.0;;;29.11;30.98
64019;BME280;66942;52.138;5.216;2023-08-31T10:53:54;101055.0;;;29.3;31.7
64019;BME280;66942;52.138;5.216;2023-08-31T10:55:50;101053.0;;;29.15;31.46
64019;BME280;66942;52.138;5.216;2023-08-31T10:57:29;101046.0;;;29.36;29.57
64019;BME280;66942;52.138;5.216;2023-08-31T11:00:47;101055.0;;;29.4;32.78
64019;BME280;66942;52.138;5.216;2023-08-31T11:02:33;101046.0;;;29.53;30.03
64019;BME280;66942;52.138;5.216;2023-08-31T11:04:09;101046.0;;;29.44;28.41
64019;BME280;66942;52.138;5.216;2023-08-31T11:05:53;101055.0;;;29.84;31.34